Time;durP1;ratioP1;P1;durP2;ratioP2;P2;SDS_P1;SDS_P2;PMS_P1;PMS_P2;Temp;Humidity;BMP_temperature;BMP_pressure;BME280_temperature;BME280_humidity;BME280_pressure;Samples;Min_cycle;Max_cycle;Signal;HPM_P1;HPM_P2
2022/10/27 00:01:50;;;;;;;10.52;4.93;;;13.70;99.90;;;;;;5051516;28;20403;-71
2022/10/27 00:04:16;;;;;;;7.88;4.40;;;13.60;99.90;;;;;;5051254;28;20037;-70
2022/10/27 00:06:42;;;;;;;10.13;4.22;;;13.50;99.90;;;;;;5050053;28;20079;-70
2022/10/27 00:09:07;;;;;;;8.95;4.82;;;13.50;99.90;;;;;;5050145;28;20045;-70
2022/10/27 00:11:33;;;;;;;8.25;4.82;;;13.50;99.90;;;;;;5051322;28;20037;-70
2022/10/27 00:13:58;;;;;;;6.50;4.57;;;13.40;99.90;;;;;;5051245;28;20139;-70
2022/10/27 00:16:24;;;;;;;8.10;5.03;;;13.30;99.90;;;;;;5051251;28;20180;-70
2022/10/27 00:18:49;;;;;;;6.32;4.50;;;13.30;99.90;;;;;;5051470;28;20045;-70
2022/10/27 00:21:20;;;;;;;11.43;4.70;;;13.30;99.90;;;;;;5051195;28;20440;-70
2022/10/27 00:23:49;;;;;;;10.60;4.90;;;13.30;99.90;;;;;;5050709;28;20041;-70
2022/10/27 00:26:19;;;;;;;14.32;5.70;;;13.30;99.90;;;;;;5051292;28;20048;-70
2022/10/27 00:28:45;;;;;;;7.60;4.80;;;13.30;99.90;;;;;;5051275;28;20363;-70
2022/10/27 00:31:12;;;;;;;9.30;4.85;;;13.30;99.90;;;;;;5051300;28;20147;-71
2022/10/27 00:33:38;;;;;;;11.68;4.90;;;13.30;99.90;;;;;;5050757;28;20037;-70
2022/10/27 00:36:12;;;;;;;9.38;5.20;;;13.30;99.90;;;;;;5049420;28;20040;-70
2022/10/27 00:38:38;;;;;;;9.40;4.70;;;13.30;99.90;;;;;;5049703;28;20056;-70
2022/10/27 00:41:05;;;;;;;13.18;4.97;;;13.30;99.90;;;;;;5049548;28;20075;-70
2022/10/27 00:43:36;;;;;;;12.38;5.70;;;13.40;99.90;;;;;;5050725;28;20048;-70
2022/10/27 00:46:18;;;;;;;11.88;4.75;;;13.40;99.90;;;;;;5050500;28;20170;-70
2022/10/27 00:48:45;;;;;;;12.15;5.53;;;13.40;99.90;;;;;;5050861;28;20509;-70
2022/10/27 00:51:16;;;;;;;9.48;5.03;;;13.50;99.90;;;;;;5049394;28;20055;-70
2022/10/27 00:53:42;;;;;;;12.35;5.55;;;13.50;99.90;;;;;;5049622;28;20080;-70
2022/10/27 00:56:08;;;;;;;12.95;5.38;;;13.50;99.90;;;;;;5050874;28;20052;-70
2022/10/27 00:58:34;;;;;;;11.80;6.07;;;13.50;99.90;;;;;;5050662;28;20059;-70
2022/10/27 01:01:00;;;;;;;8.52;5.30;;;13.60;99.90;;;;;;5050685;28;20041;-70
2022/10/27 01:03:26;;;;;;;11.90;6.03;;;13.60;99.90;;;;;;5049314;28;20524;-71
2022/10/27 01:05:55;;;;;;;9.48;5.05;;;13.60;99.90;;;;;;5050725;28;20041;-70
2022/10/27 01:08:22;;;;;;;13.43;6.00;;;13.60;99.90;;;;;;5049231;28;20567;-70
2022/10/27 01:10:48;;;;;;;13.07;5.72;;;13.70;99.90;;;;;;5051438;28;20041;-70
2022/10/27 01:13:14;;;;;;;12.75;5.47;;;13.60;99.90;;;;;;5053388;28;20565;-70
2022/10/27 01:15:43;;;;;;;9.25;5.35;;;13.60;99.90;;;;;;5054688;28;20056;-70
2022/10/27 01:18:18;;;;;;;9.35;5.65;;;13.70;99.90;;;;;;5054763;28;20043;-70
2022/10/27 01:21:16;;;;;;;9.32;5.15;;;13.70;99.90;;;;;;5053463;28;20036;-70
2022/10/27 01:23:50;;;;;;;13.85;5.95;;;13.70;99.90;;;;;;5054515;28;20045;-70
2022/10/27 01:26:40;;;;;;;14.55;6.10;;;13.70;99.90;;;;;;5054555;28;20033;-70
2022/10/27 01:29:29;;;;;;;9.25;5.25;;;13.70;99.90;;;;;;5054513;28;20041;-70
2022/10/27 01:31:58;;;;;;;6.97;5.10;;;13.70;99.90;;;;;;5052434;28;20052;-70
2022/10/27 01:34:24;;;;;;;8.98;5.60;;;13.70;99.90;;;;;;5053086;28;20582;-70
2022/10/27 01:37:00;;;;;;;13.05;5.97;;;13.70;99.90;;;;;;5054180;28;20076;-71
2022/10/27 01:39:40;;;;;;;8.43;5.38;;;13.70;99.90;;;;;;5054449;28;20467;-70
2022/10/27 01:42:07;;;;;;;7.47;5.57;;;13.70;99.90;;;;;;5054446;28;20512;-70
2022/10/27 01:44:43;;;;;;;10.95;5.88;;;13.70;99.90;;;;;;5054008;28;20442;-70
2022/10/27 01:47:10;;;;;;;11.60;5.38;;;13.70;99.90;;;;;;5054351;28;20037;-70
2022/10/27 01:49:37;;;;;;;13.30;5.78;;;13.80;99.90;;;;;;5054131;28;20040;-70
2022/10/27 01:52:26;;;;;;;13.20;5.43;;;13.70;99.90;;;;;;5052726;28;20040;-70
2022/10/27 01:54:54;;;;;;;7.50;5.10;;;13.70;99.90;;;;;;5053708;28;20559;-70
2022/10/27 01:57:43;;;;;;;10.35;5.50;;;13.80;99.90;;;;;;5053730;28;20553;-70
2022/10/27 02:00:09;;;;;;;10.40;5.50;;;13.80;99.90;;;;;;5053796;28;20533;-71
2022/10/27 02:02:55;;;;;;;11.07;5.70;;;13.80;99.90;;;;;;5052725;28;20049;-71
2022/10/27 02:05:34;;;;;;;11.68;5.28;;;13.80;99.90;;;;;;5053669;28;20053;-70
2022/10/27 02:08:25;;;;;;;11.60;5.53;;;13.80;99.90;;;;;;5053641;28;20524;-70
2022/10/27 02:11:03;;;;;;;14.10;5.50;;;13.80;99.90;;;;;;5052488;28;20055;-70
2022/10/27 02:13:36;;;;;;;9.13;5.38;;;13.80;99.90;;;;;;5052376;28;20048;-70
2022/10/27 02:16:08;;;;;;;9.73;5.93;;;13.80;99.90;;;;;;5053622;28;20409;-70
2022/10/27 02:18:38;;;;;;;11.00;5.13;;;13.80;99.90;;;;;;5053999;28;20041;-70
2022/10/27 02:21:07;;;;;;;8.90;5.60;;;13.80;99.90;;;;;;5052220;28;20055;-70
2022/10/27 02:23:34;;;;;;;12.57;5.65;;;13.80;99.90;;;;;;5052630;28;20571;-70
2022/10/27 02:26:32;;;;;;;6.68;5.07;;;13.80;99.90;;;;;;5053321;28;20056;-70
2022/10/27 02:29:17;;;;;;;16.95;6.50;;;13.70;99.90;;;;;;5052231;28;20397;-70
2022/10/27 02:31:50;;;;;;;10.52;5.78;;;13.70;99.90;;;;;;5051960;28;20462;-70
2022/10/27 02:34:16;;;;;;;;;;;13.60;99.90;;;;;;5051735;28;20492;-71
2022/10/27 02:36:41;;;;;;;8.68;5.07;;;13.60;99.90;;;;;;5053290;28;19943;-71
2022/10/27 02:39:07;;;;;;;9.40;5.38;;;13.50;99.90;;;;;;5053287;28;20127;-71
2022/10/27 02:41:32;;;;;;;11.50;6.28;;;13.50;99.90;;;;;;5051667;28;20497;-70
2022/10/27 02:43:58;;;;;;;9.23;5.53;;;13.40;99.90;;;;;;5052598;28;20047;-70
2022/10/27 02:46:23;;;;;;;10.43;5.43;;;13.50;99.90;;;;;;5053256;28;20045;-70
2022/10/27 02:48:49;;;;;;;12.57;5.22;;;13.40;99.90;;;;;;5051496;28;20048;-71
2022/10/27 02:51:14;;;;;;;17.40;5.43;;;13.40;99.90;;;;;;5053120;28;20072;-70
2022/10/27 02:53:40;;;;;;;12.88;5.20;;;13.40;99.90;;;;;;5052797;28;20073;-70
2022/10/27 02:56:07;;;;;;;11.30;5.10;;;13.30;99.90;;;;;;5051592;28;20123;-70
2022/10/27 02:58:33;;;;;;;10.25;5.07;;;13.30;99.90;;;;;;5052424;28;20045;-70
2022/10/27 03:00:59;;;;;;;10.57;5.38;;;13.30;99.90;;;;;;5052844;28;20103;-70
2022/10/27 03:03:25;;;;;;;11.38;5.88;;;13.30;99.90;;;;;;5051231;28;20045;-70
2022/10/27 03:05:50;;;;;;;15.20;7.00;;;13.30;99.90;;;;;;5051192;28;20045;-70
2022/10/27 03:08:16;;;;;;;12.93;6.85;;;13.40;99.90;;;;;;5052504;28;20501;-70
2022/10/27 03:10:43;;;;;;;11.98;6.15;;;13.40;99.90;;;;;;5034948;28;20041;-70
2022/10/27 03:13:08;;;;;;;9.27;5.97;;;13.40;99.90;;;;;;5051264;28;20440;-70
2022/10/27 03:15:34;;;;;;;10.95;5.85;;;13.40;99.90;;;;;;5034352;28;20041;-71
2022/10/27 03:17:59;;;;;;;10.27;5.72;;;13.40;99.90;;;;;;5050963;28;20067;-70
2022/10/27 03:20:25;;;;;;;11.95;5.45;;;13.30;99.90;;;;;;5051328;28;20494;-70
2022/10/27 03:22:50;;;;;;;7.82;5.65;;;13.30;99.90;;;;;;5052297;28;20048;-70
2022/10/27 03:25:16;;;;;;;9.18;5.20;;;13.30;99.90;;;;;;5051983;28;20400;-70
2022/10/27 03:27:43;;;;;;;10.40;6.35;;;13.20;99.90;;;;;;5052069;28;20040;-70
2022/10/27 03:30:13;;;;;;;11.38;6.20;;;13.20;99.90;;;;;;5052701;28;20126;-70
2022/10/27 03:32:39;;;;;;;10.57;5.90;;;13.10;99.90;;;;;;5051150;28;20520;-70
2022/10/27 03:35:06;;;;;;;8.75;6.03;;;13.10;99.90;;;;;;5050742;28;20128;-70
2022/10/27 03:37:31;;;;;;;9.48;5.88;;;13.10;99.90;;;;;;5050661;28;20126;-71
2022/10/27 03:39:57;;;;;;;8.77;5.70;;;13.10;99.90;;;;;;5051927;28;20069;-70
2022/10/27 03:42:22;;;;;;;16.75;6.03;;;13.10;99.90;;;;;;5050681;28;20036;-70
2022/10/27 03:44:48;;;;;;;9.80;5.38;;;13.10;99.90;;;;;;5050208;28;20116;-70
2022/10/27 03:47:14;;;;;;;10.05;6.25;;;13.00;99.90;;;;;;5050812;28;20071;-70
2022/10/27 03:49:39;;;;;;;7.50;5.28;;;13.00;99.90;;;;;;5051807;28;20052;-71
2022/10/27 03:52:05;;;;;;;12.25;6.53;;;13.10;99.90;;;;;;5050772;28;20098;-71
2022/10/27 03:54:31;;;;;;;10.88;5.97;;;13.10;99.90;;;;;;5050031;28;20087;-70
2022/10/27 03:56:57;;;;;;;12.50;6.20;;;13.00;99.90;;;;;;5050378;28;20037;-71
2022/10/27 03:59:23;;;;;;;8.68;5.78;;;13.00;99.90;;;;;;5050165;28;20046;-70
2022/10/27 04:01:48;;;;;;;8.30;6.03;;;13.00;99.90;;;;;;5051734;28;20420;-70
2022/10/27 04:04:14;;;;;;;12.40;6.22;;;13.00;99.90;;;;;;5051352;28;20534;-70
2022/10/27 04:06:39;;;;;;;9.40;6.00;;;13.00;99.90;;;;;;5050139;28;20036;-70
2022/10/27 04:09:05;;;;;;;11.35;6.25;;;13.00;99.90;;;;;;5051267;28;20041;-70
2022/10/27 04:11:31;;;;;;;10.38;6.70;;;13.00;99.90;;;;;;5051540;28;20378;-70
2022/10/27 04:13:57;;;;;;;12.27;7.13;;;13.00;99.90;;;;;;5050959;28;20125;-70
2022/10/27 04:16:23;;;;;;;10.65;7.25;;;13.00;99.90;;;;;;5051183;28;20523;-70
2022/10/27 04:18:48;;;;;;;9.88;6.45;;;13.00;99.90;;;;;;5049735;28;20056;-70
2022/10/27 04:21:14;;;;;;;10.50;6.88;;;13.00;99.90;;;;;;5033289;28;20135;-70
2022/10/27 04:23:40;;;;;;;8.50;6.22;;;13.00;99.90;;;;;;5050815;28;20401;-70
2022/10/27 04:26:06;;;;;;;15.93;6.72;;;13.00;99.90;;;;;;5051002;28;20033;-70
2022/10/27 04:28:31;;;;;;;13.23;7.40;;;13.00;99.90;;;;;;5051026;28;20036;-71
2022/10/27 04:30:57;;;;;;;15.35;7.70;;;13.00;99.90;;;;;;5050146;28;20064;-70
2022/10/27 04:33:23;;;;;;;10.57;6.65;;;13.00;99.90;;;;;;5033189;28;20071;-70
2022/10/27 04:35:48;;;;;;;13.35;6.82;;;13.00;99.90;;;;;;5051098;28;20044;-70
2022/10/27 04:38:14;;;;;;;11.05;7.25;;;13.00;99.90;;;;;;5051062;28;20103;-71
2022/10/27 04:40:39;;;;;;;11.43;6.50;;;13.00;99.90;;;;;;5051065;28;20049;-72
2022/10/27 04:43:06;;;;;;;9.77;7.10;;;13.00;99.90;;;;;;5050896;28;20039;-71
2022/10/27 04:45:32;;;;;;;15.38;6.90;;;12.90;99.90;;;;;;5049444;28;20378;-71
2022/10/27 04:47:58;;;;;;;10.65;7.28;;;12.90;99.90;;;;;;5051153;28;20393;-70
2022/10/27 04:50:23;;;;;;;11.68;7.53;;;12.90;99.90;;;;;;5049808;28;20029;-71
2022/10/27 04:53:00;;;;;;;19.65;7.32;;;12.90;99.90;;;;;;5050803;28;20045;-70
2022/10/27 04:55:28;;;;;;;14.65;7.68;;;12.90;99.90;;;;;;5050569;28;20040;-70
2022/10/27 04:57:53;;;;;;;10.35;6.75;;;12.90;99.90;;;;;;5051000;28;20086;-70
2022/10/27 05:00:20;;;;;;;12.82;7.60;;;13.00;99.90;;;;;;5050682;28;20123;-70
2022/10/27 05:02:54;;;;;;;14.82;6.93;;;13.00;99.90;;;;;;5049451;28;20052;-70
2022/10/27 05:05:21;;;;;;;15.02;7.50;;;13.00;99.90;;;;;;5049038;28;20127;-70
2022/10/27 05:07:54;;;;;;;13.40;7.28;;;13.00;99.90;;;;;;5050691;28;20080;-70
2022/10/27 05:10:20;;;;;;;10.15;7.03;;;13.00;99.90;;;;;;5050995;28;20036;-70
2022/10/27 05:12:45;;;;;;;11.30;7.32;;;13.00;99.90;;;;;;5050678;28;20044;-70
2022/10/27 05:15:11;;;;;;;11.77;7.47;;;13.10;99.90;;;;;;5050623;28;20253;-70
2022/10/27 05:17:37;;;;;;;13.90;7.85;;;13.10;99.90;;;;;;5050581;28;20037;-71
2022/10/27 05:20:04;;;;;;;13.05;7.30;;;13.10;99.90;;;;;;5050448;28;20041;-70
2022/10/27 05:22:29;;;;;;;11.13;7.30;;;13.10;99.90;;;;;;5050808;28;20041;-70
2022/10/27 05:24:55;;;;;;;11.32;7.07;;;13.10;99.90;;;;;;5050086;28;20120;-70
2022/10/27 05:27:20;;;;;;;11.18;7.05;;;13.10;99.90;;;;;;5049199;28;20049;-71
2022/10/27 05:29:46;;;;;;;9.63;6.47;;;13.10;99.90;;;;;;5050495;28;20465;-70
2022/10/27 05:32:11;;;;;;;14.63;6.60;;;13.10;99.90;;;;;;5049397;28;20037;-70
2022/10/27 05:34:37;;;;;;;11.10;6.75;;;13.10;99.90;;;;;;5048858;28;20558;-70
2022/10/27 05:37:02;;;;;;;10.70;7.25;;;13.10;99.90;;;;;;5050272;28;20052;-71
2022/10/27 05:39:28;;;;;;;12.40;7.53;;;13.00;99.90;;;;;;5050402;28;20090;-70
2022/10/27 05:41:53;;;;;;;11.50;6.57;;;13.10;99.90;;;;;;5049010;28;20644;-70
2022/10/27 05:44:19;;;;;;;11.52;7.00;;;13.10;99.90;;;;;;5048668;28;20093;-71
2022/10/27 05:46:44;;;;;;;10.07;6.95;;;13.10;99.90;;;;;;5050268;28;20036;-70
2022/10/27 05:49:10;;;;;;;10.88;6.75;;;13.10;99.90;;;;;;5050365;28;20040;-70
2022/10/27 05:51:36;;;;;;;12.48;7.05;;;13.10;99.90;;;;;;5049149;28;20483;-70
2022/10/27 05:54:01;;;;;;;10.98;6.78;;;13.10;99.90;;;;;;5049937;28;20387;-70
2022/10/27 05:56:27;;;;;;;11.30;6.43;;;13.10;99.90;;;;;;5049188;28;20055;-70
2022/10/27 05:58:52;;;;;;;16.08;6.70;;;13.10;99.90;;;;;;5053662;28;20033;-71
2022/10/27 06:01:18;;;;;;;12.40;6.80;;;13.10;99.90;;;;;;5052549;28;20044;-70
2022/10/27 06:03:44;;;;;;;14.63;8.00;;;13.10;99.90;;;;;;5052866;28;20049;-70
2022/10/27 06:06:09;;;;;;;12.98;6.95;;;13.10;99.90;;;;;;5052367;28;20049;-70
2022/10/27 06:08:35;;;;;;;11.70;6.72;;;13.10;99.90;;;;;;5052100;28;20051;-70
2022/10/27 06:11:02;;;;;;;17.55;7.13;;;13.10;99.90;;;;;;5049611;28;20441;-70
2022/10/27 06:13:27;;;;;;;8.90;6.95;;;13.00;99.90;;;;;;5050799;28;20045;-70
2022/10/27 06:15:53;;;;;;;11.13;6.88;;;13.00;99.90;;;;;;5049071;28;20043;-70
2022/10/27 06:18:18;;;;;;;14.02;7.07;;;13.00;99.90;;;;;;5048852;28;20032;-70
2022/10/27 06:20:44;;;;;;;13.75;7.28;;;13.00;99.90;;;;;;5033157;28;20052;-70
2022/10/27 06:23:09;;;;;;;13.90;7.43;;;13.00;99.90;;;;;;5050193;28;20102;-70
2022/10/27 06:25:35;;;;;;;12.38;6.75;;;13.00;99.90;;;;;;5052656;28;20037;-70
2022/10/27 06:28:00;;;;;;;9.07;6.85;;;13.10;99.90;;;;;;5051457;28;20060;-72
2022/10/27 06:30:26;;;;;;;11.88;6.50;;;13.10;99.90;;;;;;5053018;28;20044;-70
2022/10/27 06:32:52;;;;;;;12.60;7.50;;;13.10;99.90;;;;;;5053300;28;20041;-70
2022/10/27 06:35:18;;;;;;;15.70;7.05;;;13.10;99.90;;;;;;5051290;28;20033;-72
2022/10/27 06:37:45;;;;;;;11.32;7.43;;;13.10;99.90;;;;;;5053271;28;20037;-72
2022/10/27 06:40:16;;;;;;;11.27;6.55;;;13.10;99.90;;;;;;5051787;28;20049;-71
2022/10/27 06:42:42;;;;;;;10.23;6.97;;;13.10;99.90;;;;;;5051764;28;20045;-72
2022/10/27 06:45:09;;;;;;;12.98;6.68;;;13.10;99.90;;;;;;5051467;28;20099;-72
2022/10/27 06:47:35;;;;;;;15.18;8.30;;;13.10;99.90;;;;;;5051715;28;20037;-72
2022/10/27 06:50:01;;;;;;;10.45;7.43;;;13.10;99.90;;;;;;5052826;28;20040;-72
2022/10/27 06:52:27;;;;;;;12.52;6.63;;;13.10;99.90;;;;;;5052888;28;20041;-72
2022/10/27 06:54:52;;;;;;;13.73;8.18;;;13.10;99.90;;;;;;5051260;28;20128;-72
2022/10/27 06:57:18;;;;;;;12.13;7.70;;;13.10;99.90;;;;;;5051433;28;20047;-72
2022/10/27 06:59:43;;;;;;;14.80;7.10;;;13.10;99.90;;;;;;5052574;28;20045;-72
2022/10/27 07:02:11;;;;;;;16.05;6.88;;;13.20;99.90;;;;;;5051521;28;20489;-72
2022/10/27 07:04:36;;;;;;;13.00;7.95;;;13.10;99.90;;;;;;5051210;28;20090;-72
2022/10/27 07:07:02;;;;;;;14.70;7.95;;;13.20;99.90;;;;;;5052505;28;20124;-72
2022/10/27 07:09:28;;;;;;;12.48;7.32;;;13.20;99.90;;;;;;5051268;28;20037;-71
2022/10/27 07:11:53;;;;;;;11.90;7.55;;;13.20;99.90;;;;;;5052410;28;20120;-72
2022/10/27 07:14:19;;;;;;;14.50;7.45;;;13.20;99.90;;;;;;5052442;28;20041;-71
2022/10/27 07:16:44;;;;;;;14.48;8.00;;;13.30;99.90;;;;;;5052547;28;20044;-72
2022/10/27 07:19:10;;;;;;;19.67;10.32;;;13.30;99.90;;;;;;5051357;28;20132;-71
2022/10/27 07:21:35;;;;;;;11.43;7.82;;;13.30;99.90;;;;;;5050982;28;20081;-72
2022/10/27 07:24:01;;;;;;;19.73;7.60;;;13.30;99.90;;;;;;5050728;28;20120;-72
2022/10/27 07:26:26;;;;;;;19.95;7.88;;;13.40;99.90;;;;;;5051152;28;20090;-72
2022/10/27 07:28:52;;;;;;;13.73;6.93;;;13.40;99.90;;;;;;5050785;28;20462;-72
2022/10/27 07:31:17;;;;;;;16.08;7.30;;;13.40;99.90;;;;;;5034271;28;20545;-72
2022/10/27 07:33:43;;;;;;;14.82;7.75;;;13.50;99.90;;;;;;5050890;28;20045;-72
2022/10/27 07:36:08;;;;;;;18.92;8.43;;;13.50;99.90;;;;;;5052137;28;20049;-72
2022/10/27 07:38:34;;;;;;;23.17;8.18;;;13.50;99.90;;;;;;5050960;28;20590;-72
2022/10/27 07:40:59;;;;;;;14.15;7.47;;;13.50;99.90;;;;;;5050609;28;20045;-72
2022/10/27 07:43:25;;;;;;;14.50;7.53;;;13.60;99.90;;;;;;5051895;28;20037;-72
2022/10/27 07:45:51;;;;;;;18.23;7.38;;;13.60;99.90;;;;;;5050363;28;20041;-71
2022/10/27 07:48:16;;;;;;;14.40;7.85;;;13.70;99.90;;;;;;5033899;28;20485;-72
2022/10/27 07:50:43;;;;;;;13.93;7.78;;;13.70;99.90;;;;;;5050415;28;20455;-72
2022/10/27 07:53:10;;;;;;;15.70;7.78;;;13.70;99.90;;;;;;5051815;28;20533;-71
2022/10/27 07:55:36;;;;;;;13.43;8.10;;;13.80;99.90;;;;;;5050348;28;20037;-71
2022/10/27 07:58:13;;;;;;;16.05;7.53;;;13.80;99.90;;;;;;5051879;28;20066;-71
2022/10/27 08:00:41;;;;;;;13.48;7.82;;;13.80;99.90;;;;;;5051638;28;20068;-71
2022/10/27 08:03:14;;;;;;;12.82;7.72;;;13.90;99.90;;;;;;5051821;28;20076;-71
2022/10/27 08:05:40;;;;;;;11.65;7.22;;;13.90;99.90;;;;;;5049987;28;20136;-71
2022/10/27 08:08:07;;;;;;;11.45;7.15;;;13.90;99.90;;;;;;5050398;28;20049;-71
2022/10/27 08:10:35;;;;;;;13.18;7.05;;;14.00;99.90;;;;;;5050152;28;20045;-71
2022/10/27 08:13:01;;;;;;;19.17;7.25;;;14.00;99.90;;;;;;5050354;28;20041;-72
2022/10/27 08:15:27;;;;;;;13.25;7.35;;;14.10;99.90;;;;;;5051150;28;20045;-71
2022/10/27 08:17:56;;;;;;;12.48;7.22;;;14.10;99.90;;;;;;5051231;28;20032;-71
2022/10/27 08:20:22;;;;;;;15.15;6.85;;;14.10;99.90;;;;;;5050849;28;20099;-71
2022/10/27 08:22:59;;;;;;;14.30;6.63;;;14.20;99.90;;;;;;5051548;28;20370;-71
2022/10/27 08:25:25;;;;;;;10.23;6.40;;;14.20;99.90;;;;;;5051178;28;20056;-71
2022/10/27 08:27:51;;;;;;;15.77;7.18;;;14.20;99.90;;;;;;5051337;28;20036;-71
2022/10/27 08:30:17;;;;;;;14.38;7.07;;;14.30;99.90;;;;;;5051131;28;20039;-72
2022/10/27 08:32:42;;;;;;;17.20;7.00;;;14.30;99.90;;;;;;5049709;28;20082;-72
2022/10/27 08:35:08;;;;;;;11.55;6.82;;;14.30;99.90;;;;;;5049611;28;20075;-72
2022/10/27 08:37:34;;;;;;;12.55;6.18;;;14.30;99.90;;;;;;5050963;28;20049;-72
2022/10/27 08:39:59;;;;;;;15.52;6.63;;;14.30;99.90;;;;;;5051118;28;20041;-72
2022/10/27 08:42:55;;;;;;;10.05;6.60;;;14.30;99.90;;;;;;5051194;28;20042;-72
2022/10/27 08:45:33;;;;;;;16.58;6.68;;;14.40;99.90;;;;;;5049292;28;20045;-71
2022/10/27 08:48:00;;;;;;;9.63;5.72;;;14.40;99.90;;;;;;5049479;28;20493;-72
2022/10/27 08:50:30;;;;;;;9.93;6.20;;;14.30;99.90;;;;;;5050795;28;20048;-72
2022/10/27 08:53:01;;;;;;;11.30;6.40;;;14.40;99.90;;;;;;5049512;28;20041;-72
2022/10/27 08:55:47;;;;;;;11.70;6.10;;;14.30;99.90;;;;;;5050683;28;20041;-71
2022/10/27 08:58:40;;;;;;;10.23;6.65;;;14.40;99.90;;;;;;5049207;28;20041;-72
2022/10/27 09:01:18;;;;;;;13.88;7.05;;;14.40;99.90;;;;;;5049390;28;20041;-71
2022/10/27 09:04:08;;;;;;;13.77;6.43;;;14.50;99.90;;;;;;5050386;28;20045;-71
2022/10/27 09:06:39;;;;;;;12.30;6.45;;;14.50;99.90;;;;;;5050618;28;20115;-72
2022/10/27 09:09:14;;;;;;;13.23;6.30;;;14.60;99.90;;;;;;5049318;28;20037;-72
2022/10/27 09:11:57;;;;;;;10.27;5.78;;;14.60;99.90;;;;;;5050570;28;20052;-72
2022/10/27 09:14:26;;;;;;;11.82;5.88;;;14.80;99.90;;;;;;5050321;28;20045;-71
2022/10/27 09:17:08;;;;;;;13.77;6.30;;;14.80;99.90;;;;;;5050423;28;20045;-72
2022/10/27 09:20:00;;;;;;;13.07;6.22;;;14.90;99.90;;;;;;5049269;28;20045;-72
2022/10/27 09:22:29;;;;;;;12.05;5.32;;;14.90;99.90;;;;;;5050615;28;20039;-72
2022/10/27 09:25:02;;;;;;;13.85;6.13;;;15.00;99.90;;;;;;5050264;28;20041;-72
2022/10/27 09:27:28;;;;;;;12.07;5.22;;;15.10;99.90;;;;;;5049171;28;20533;-72
2022/10/27 09:29:57;;;;;;;11.10;5.43;;;15.10;99.90;;;;;;5050422;28;20124;-72
2022/10/27 09:32:25;;;;;;;11.90;5.68;;;15.20;99.90;;;;;;5052136;28;20175;-72
2022/10/27 09:35:08;;;;;;;9.82;4.85;;;15.40;99.90;;;;;;5052826;28;20048;-72
2022/10/27 09:37:41;;;;;;;13.60;5.03;;;15.40;99.90;;;;;;5052918;28;20094;-72
2022/10/27 09:40:15;;;;;;;6.88;4.60;;;15.40;99.90;;;;;;5053002;28;20048;-72
2022/10/27 09:42:41;;;;;;;8.25;4.70;;;15.50;99.90;;;;;;5054089;28;20048;-71
2022/10/27 09:45:19;;;;;;;10.10;5.95;;;15.50;99.90;;;;;;5052586;28;20429;-72
2022/10/27 09:47:48;;;;;;;6.65;4.10;;;15.50;99.90;;;;;;5052951;28;20074;-72
2022/10/27 09:50:27;;;;;;;10.88;5.32;;;15.70;99.90;;;;;;5053059;28;20393;-72
2022/10/27 09:52:52;;;;;;;7.93;3.95;;;15.70;99.90;;;;;;5054253;28;20112;-72
2022/10/27 09:55:19;;;;;;;10.45;4.47;;;15.80;99.90;;;;;;5054040;28;20436;-70
2022/10/27 09:57:47;;;;;;;9.50;4.13;;;15.90;99.90;;;;;;5052575;28;20051;-72
2022/10/27 10:00:15;;;;;;;7.60;4.65;;;16.00;99.90;;;;;;5052545;28;20502;-72
2022/10/27 10:03:02;;;;;;;10.40;4.68;;;16.10;99.90;;;;;;5052813;28;20055;-72
2022/10/27 10:05:38;;;;;;;11.50;4.85;;;16.10;99.90;;;;;;5052330;28;20048;-72
2022/10/27 10:08:13;;;;;;;7.35;4.38;;;16.10;99.90;;;;;;5053897;28;20068;-72
2022/10/27 10:10:39;;;;;;;8.90;4.40;;;16.20;99.90;;;;;;5052605;28;20037;-72
2022/10/27 10:13:11;;;;;;;8.88;4.50;;;16.20;99.90;;;;;;5053864;28;20040;-72
2022/10/27 10:15:40;;;;;;;9.60;4.47;;;16.20;99.90;;;;;;5053764;28;20075;-72
2022/10/27 10:18:27;;;;;;;10.43;4.40;;;16.30;99.90;;;;;;5035886;28;20439;-72
2022/10/27 10:20:59;;;;;;;5.95;3.75;;;16.40;99.90;;;;;;5053642;28;20044;-72
2022/10/27 10:23:28;;;;;;;6.65;4.30;;;16.50;99.90;;;;;;5053399;28;20493;-72
2022/10/27 10:25:57;;;;;;;5.50;3.03;;;16.50;99.90;;;;;;5052191;28;20104;-72
2022/10/27 10:28:26;;;;;;;8.50;3.13;;;16.60;99.90;;;;;;5053596;28;20041;-72
2022/10/27 10:30:54;;;;;;;8.13;3.00;;;16.70;99.90;;;;;;5052237;28;20036;-72
2022/10/27 10:33:24;;;;;;;6.97;3.33;;;16.80;99.90;;;;;;5051968;28;20049;-72
2022/10/27 10:35:51;;;;;;;8.57;3.25;;;16.80;99.90;;;;;;5051826;28;20053;-72
2022/10/27 10:38:22;;;;;;;4.72;2.85;;;16.90;99.90;;;;;;5051789;28;20041;-72
2022/10/27 10:41:11;;;;;;;5.33;3.10;;;17.00;99.90;;;;;;5053516;28;20041;-72
2022/10/27 10:43:37;;;;;;;5.38;2.30;;;17.00;99.90;;;;;;5051272;28;20300;-72
2022/10/27 10:46:04;;;;;;;3.05;2.67;;;17.10;99.90;;;;;;5051738;28;20045;-72
2022/10/27 10:48:34;;;;;;;3.35;2.30;;;17.10;99.90;;;;;;5053168;28;20051;-72
2022/10/27 10:51:00;;;;;;;5.82;2.20;;;17.10;99.90;;;;;;5053101;28;20087;-72
2022/10/27 10:53:30;;;;;;;6.70;2.50;;;17.20;99.90;;;;;;5051580;28;20069;-71
2022/10/27 10:56:00;;;;;;;9.40;2.60;;;17.20;99.90;;;;;;5051638;28;20061;-72
2022/10/27 10:58:28;;;;;;;5.55;2.30;;;17.20;99.90;;;;;;5051433;28;20041;-72
2022/10/27 11:01:03;;;;;;;7.25;2.00;;;17.20;99.90;;;;;;5051763;28;20436;-70
2022/10/27 11:03:41;;;;;;;9.85;2.10;;;17.20;99.90;;;;;;5051697;28;20047;-70
2022/10/27 11:06:16;;;;;;;4.80;1.70;;;17.20;99.90;;;;;;5060009;28;20041;-70
2022/10/27 11:08:42;;;;;;;5.95;1.90;;;17.20;99.90;;;;;;5060249;28;20116;-70
2022/10/27 11:11:19;;;;;;;4.63;1.75;;;17.30;99.90;;;;;;5052657;28;20043;-70
2022/10/27 11:13:55;;;;;;;4.75;1.70;;;17.30;99.90;;;;;;5052150;28;20056;-69
2022/10/27 11:16:21;;;;;;;5.47;1.90;;;17.40;99.90;;;;;;5051514;28;20045;-70
2022/10/27 11:18:57;;;;;;;4.55;1.77;;;17.40;99.90;;;;;;5051063;28;20052;-70
2022/10/27 11:21:39;;;;;;;14.00;4.00;;;17.40;99.90;;;;;;5052716;28;20413;-70
2022/10/27 11:24:26;;;;;;;4.25;1.60;;;17.50;99.90;;;;;;5052069;28;20106;-70
2022/10/27 11:27:02;;;;;;;4.70;1.88;;;17.50;99.90;;;;;;5055610;28;20040;-70
2022/10/27 11:29:55;;;;;;;4.15;1.50;;;17.50;99.90;;;;;;5057650;28;20037;-70
2022/10/27 11:32:46;;;;;;;5.68;1.58;;;17.60;99.90;;;;;;5059699;28;20087;-70
2022/10/27 11:35:25;;;;;;;3.70;2.22;;;17.60;99.90;;;;;;5050602;28;20048;-70
2022/10/27 11:38:04;;;;;;;5.55;1.90;;;17.60;99.90;;;;;;5052053;28;20048;-70
2022/10/27 11:40:42;;;;;;;4.15;1.80;;;17.60;99.90;;;;;;5050953;28;20045;-70
2022/10/27 11:43:16;;;;;;;3.58;1.70;;;17.70;99.90;;;;;;5050656;28;20513;-70
2022/10/27 11:46:04;;;;;;;2.85;1.80;;;17.70;99.90;;;;;;5050528;28;20053;-69
2022/10/27 11:48:39;;;;;;;5.65;2.70;;;17.70;99.90;;;;;;5050623;28;20129;-70
2022/10/27 11:51:49;;;;;;;6.30;1.90;;;17.70;99.90;;;;;;5052172;28;20049;-70
2022/10/27 11:54:15;;;;;;;3.53;1.52;;;17.70;99.90;;;;;;5049567;28;20072;-70
2022/10/27 11:57:01;;;;;;;4.00;1.50;;;17.70;99.90;;;;;;5051450;28;20509;-70
2022/10/27 11:59:40;;;;;;;4.35;1.65;;;17.70;99.90;;;;;;5049949;28;20053;-71
2022/10/27 12:02:35;;;;;;;3.45;1.30;;;17.70;99.90;;;;;;5050470;28;20049;-71
2022/10/27 12:05:22;;;;;;;5.15;1.30;;;17.70;99.90;;;;;;5050046;28;20052;-71
2022/10/27 12:08:09;;;;;;;5.93;1.77;;;17.70;99.90;;;;;;5033678;28;20056;-71
2022/10/27 12:10:56;;;;;;;3.35;1.80;;;17.70;99.90;;;;;;5051657;28;20052;-71
2022/10/27 12:13:28;;;;;;;4.65;1.85;;;17.70;99.90;;;;;;5050252;28;20393;-71
2022/10/27 12:16:07;;;;;;;4.85;2.20;;;17.70;99.90;;;;;;5049951;28;20049;-71
2022/10/27 12:19:00;;;;;;;3.40;1.95;;;17.70;99.90;;;;;;5050001;28;20048;-71
2022/10/27 12:21:30;;;;;;;6.93;2.17;;;17.70;99.90;;;;;;5051396;28;20068;-71
2022/10/27 12:24:07;;;;;;;8.75;2.38;;;17.70;99.90;;;;;;5049623;28;20037;-71
2022/10/27 12:26:51;;;;;;;5.13;2.00;;;17.70;99.90;;;;;;5051537;28;20111;-71
2022/10/27 12:29:18;;;;;;;5.68;2.15;;;17.70;99.90;;;;;;5049949;28;20056;-71
2022/10/27 12:31:59;;;;;;;8.63;1.92;;;17.70;99.90;;;;;;5049953;28;20033;-71
2022/10/27 12:34:31;;;;;;;4.63;1.70;;;17.80;99.90;;;;;;5049320;28;20071;-71
2022/10/27 12:37:02;;;;;;;5.00;2.28;;;17.80;99.90;;;;;;5049829;28;20037;-70
2022/10/27 12:39:57;;;;;;;7.00;1.88;;;17.90;99.90;;;;;;5050082;28;20041;-70
2022/10/27 12:42:39;;;;;;;5.22;1.80;;;17.90;99.90;;;;;;5049697;28;20047;-70
2022/10/27 12:45:23;;;;;;;4.67;1.90;;;17.90;99.90;;;;;;5049382;28;20127;-70
2022/10/27 12:48:15;;;;;;;4.10;1.83;;;17.90;99.90;;;;;;5049733;28;20041;-70
2022/10/27 12:51:07;;;;;;;6.22;2.10;;;17.90;99.90;;;;;;5049670;28;20041;-70
2022/10/27 12:53:46;;;;;;;5.33;1.70;;;17.90;99.90;;;;;;5049555;28;20090;-71
2022/10/27 12:56:36;;;;;;;5.07;2.25;;;17.90;99.90;;;;;;5049645;28;20052;-71
2022/10/27 12:59:26;;;;;;;2.60;1.70;;;18.00;99.90;;;;;;5050966;28;20032;-71